CSAV Loncomilla — VRFB3 — position and weather

sailwx.info

Track history (hours):
 
Tides and Currents Weather Stations Pressure Air Temp Water Temp Dewpoint Dewpoint Depression Visibility Wind Speed Wind Dir Waves Ship Positions

CSAV Loncomilla

Last reported at 2016-May-11 18:25 UTC. Time now 2016-May-27 20:12 UTC.
Position N 23°59' E 118°53'.
Warning: this ship's position is 16 days out of date.

Length 261 m; draft 12.3 m.

Type: Cargo ship. MMSI: 477207400.

Date/timePositionNaut miles runAvg speedWind from/ knotsBaromVisibWave heightAir tempDewpointWater temp
2016-May-11 18:25N 23°59' E 118°53'28313.6
2016-May-10 21:33N 22°17' E 114°06'4 0.2
2016-May-10 06:29N 22°21' E 114°07'4 4.7
2016-May-10 05:32N 22°21' E 114°02'9 9.4
2016-May-10 04:33N 22°25' E 113°53'0 0.0
2016-May-09 15:33N 22°25' E 113°53'11 9.2
2016-May-09 14:19N 22°20' E 114°05'1810.3
2016-May-09 12:33N 22°08' E 114°19'295 8.1
2016-May-08 00:06N 24°17' E 119°09'2019.6
2016-May-07 23:06N 24°34' E 119°19'34819.5
2016-May-07 05:16N 29°38' E 122°28'1216.8
2016-May-07 04:33N 29°46' E 122°17'8 8.4
2016-May-07 03:33N 29°51' E 122°09'5 0.8
2016-May-06 21:23N 29°48' E 122°05'0 0.0
2016-May-06 10:11N 29°48' E 122°05'0 0.1
2016-May-06 09:31N 29°48' E 122°05'3 3.0
2016-May-06 08:33N 29°46' E 122°02'2 0.1
2016-May-05 16:05N 29°46' E 122°00'3 4.6
2016-May-05 15:32N 29°47' E 122°03'1010.0
2016-May-05 14:34N 29°49' E 122°14'10 9.7
2016-May-05 13:33N 29°44' E 122°23'9 9.1
2016-May-05 12:34N 29°47' E 122°33'9 7.3
2016-May-05 11:23N 29°50' E 122°43'2 2.1
2016-May-05 10:30N 29°49' E 122°45'31 9.4
2016-May-05 07:13N 30°18' E 122°58'2112.4
2016-May-05 05:29N 30°29' E 122°37'2613.3
2016-May-05 03:33N 30°35' E 122°07'3 1.4
2016-May-05 01:13N 30°37' E 122°04'  
Track history (hours):
 
Tides and Currents Weather Stations Pressure Air Temp Water Temp Dewpoint Dewpoint Depression Visibility Wind Speed Wind Dir Waves Ship Positions

CSAV Loncomilla

Last reported at 2016-May-11 18:25 UTC. Time now 2016-May-27 20:12 UTC.
Position N 23°59' E 118°53'.
Warning: this ship's position is 16 days out of date.

Length 261 m; draft 12.3 m.

Type: Cargo ship. MMSI: 477207400.

Date/timePositionNaut miles runAvg speedWind from/ knotsBaromVisibWave heightAir tempDewpointWater temp
2016-May-11 18:25N 23°59' E 118°53'28313.6
2016-May-10 21:33N 22°17' E 114°06'4 0.2
2016-May-10 06:29N 22°21' E 114°07'4 4.7
2016-May-10 05:32N 22°21' E 114°02'9 9.4
2016-May-10 04:33N 22°25' E 113°53'0 0.0
2016-May-09 15:33N 22°25' E 113°53'11 9.2
2016-May-09 14:19N 22°20' E 114°05'1810.3
2016-May-09 12:33N 22°08' E 114°19'295 8.1
2016-May-08 00:06N 24°17' E 119°09'2019.6
2016-May-07 23:06N 24°34' E 119°19'34819.5
2016-May-07 05:16N 29°38' E 122°28'1216.8
2016-May-07 04:33N 29°46' E 122°17'8 8.4
2016-May-07 03:33N 29°51' E 122°09'5 0.8
2016-May-06 21:23N 29°48' E 122°05'0 0.0
2016-May-06 10:11N 29°48' E 122°05'0 0.1
2016-May-06 09:31N 29°48' E 122°05'3 3.0
2016-May-06 08:33N 29°46' E 122°02'2 0.1
2016-May-05 16:05N 29°46' E 122°00'3 4.6
2016-May-05 15:32N 29°47' E 122°03'1010.0
2016-May-05 14:34N 29°49' E 122°14'10 9.7
2016-May-05 13:33N 29°44' E 122°23'9 9.1
2016-May-05 12:34N 29°47' E 122°33'9 7.3
2016-May-05 11:23N 29°50' E 122°43'2 2.1
2016-May-05 10:30N 29°49' E 122°45'31 9.4
2016-May-05 07:13N 30°18' E 122°58'2112.4
2016-May-05 05:29N 30°29' E 122°37'2613.3
2016-May-05 03:33N 30°35' E 122°07'3 1.4
2016-May-05 01:13N 30°37' E 122°04'  

Dump ship's entire track history